sensor_id;sensor_type;location;lat;lon;timestamp;P1;durP1;ratioP1;P2;durP2;ratioP2
68608;SDS011;55581;46.718;7.690;2024-01-27T00:01:52;14.32;;;7.25;;
68608;SDS011;55581;46.718;7.690;2024-01-27T00:04:17;14.67;;;6.87;;
68608;SDS011;55581;46.718;7.690;2024-01-27T00:06:42;16.47;;;7.50;;
68608;SDS011;55581;46.718;7.690;2024-01-27T00:09:08;13.63;;;6.47;;
68608;SDS011;55581;46.718;7.690;2024-01-27T00:11:33;11.70;;;5.90;;
68608;SDS011;55581;46.718;7.690;2024-01-27T00:13:59;9.77;;;4.53;;
68608;SDS011;55581;46.718;7.690;2024-01-27T00:16:24;7.97;;;3.70;;
68608;SDS011;55581;46.718;7.690;2024-01-27T00:18:52;10.15;;;4.75;;
68608;SDS011;55581;46.718;7.690;2024-01-27T00:21:20;8.60;;;3.63;;
68608;SDS011;55581;46.718;7.690;2024-01-27T00:23:48;7.80;;;3.83;;
68608;SDS011;55581;46.718;7.690;2024-01-27T00:26:16;10.57;;;4.33;;
68608;SDS011;55581;46.718;7.690;2024-01-27T00:28:41;8.25;;;3.88;;
68608;SDS011;55581;46.718;7.690;2024-01-27T00:31:06;7.93;;;3.53;;
68608;SDS011;55581;46.718;7.690;2024-01-27T00:33:32;7.80;;;4.07;;
68608;SDS011;55581;46.718;7.690;2024-01-27T00:35:57;11.30;;;5.30;;
68608;SDS011;55581;46.718;7.690;2024-01-27T00:38:22;11.57;;;5.03;;
68608;SDS011;55581;46.718;7.690;2024-01-27T00:40:48;10.10;;;4.40;;
68608;SDS011;55581;46.718;7.690;2024-01-27T00:43:13;7.63;;;3.20;;
68608;SDS011;55581;46.718;7.690;2024-01-27T00:45:39;6.00;;;2.40;;
68608;SDS011;55581;46.718;7.690;2024-01-27T00:48:04;5.80;;;2.47;;
68608;SDS011;55581;46.718;7.690;2024-01-27T00:50:32;6.53;;;3.35;;
68608;SDS011;55581;46.718;7.690;2024-01-27T00:52:58;10.47;;;4.63;;
68608;SDS011;55581;46.718;7.690;2024-01-27T00:55:23;9.87;;;4.57;;
68608;SDS011;55581;46.718;7.690;2024-01-27T00:57:48;7.22;;;2.70;;
68608;SDS011;55581;46.718;7.690;2024-01-27T01:00:14;8.70;;;3.17;;
68608;SDS011;55581;46.718;7.690;2024-01-27T01:02:39;7.35;;;3.25;;
68608;SDS011;55581;46.718;7.690;2024-01-27T01:05:06;10.00;;;5.00;;
68608;SDS011;55581;46.718;7.690;2024-01-27T01:07:36;12.80;;;5.93;;
68608;SDS011;55581;46.718;7.690;2024-01-27T01:10:02;12.57;;;5.67;;
68608;SDS011;55581;46.718;7.690;2024-01-27T01:12:30;13.55;;;6.53;;
68608;SDS011;55581;46.718;7.690;2024-01-27T01:14:58;28.83;;;9.20;;
68608;SDS011;55581;46.718;7.690;2024-01-27T01:17:23;18.23;;;8.85;;
68608;SDS011;55581;46.718;7.690;2024-01-27T01:19:48;17.70;;;7.70;;
68608;SDS011;55581;46.718;7.690;2024-01-27T01:22:16;20.17;;;8.45;;
68608;SDS011;55581;46.718;7.690;2024-01-27T01:24:41;15.60;;;7.53;;
68608;SDS011;55581;46.718;7.690;2024-01-27T01:27:07;15.30;;;6.55;;
68608;SDS011;55581;46.718;7.690;2024-01-27T01:29:33;13.80;;;7.23;;
68608;SDS011;55581;46.718;7.690;2024-01-27T01:32:03;13.90;;;7.57;;
68608;SDS011;55581;46.718;7.690;2024-01-27T01:34:31;14.05;;;6.63;;
68608;SDS011;55581;46.718;7.690;2024-01-27T01:36:56;11.73;;;6.00;;
68608;SDS011;55581;46.718;7.690;2024-01-27T01:39:22;10.13;;;5.30;;
68608;SDS011;55581;46.718;7.690;2024-01-27T01:41:47;8.50;;;3.80;;
68608;SDS011;55581;46.718;7.690;2024-01-27T01:44:15;9.57;;;4.50;;
68608;SDS011;55581;46.718;7.690;2024-01-27T01:46:41;9.77;;;5.13;;
68608;SDS011;55581;46.718;7.690;2024-01-27T01:49:08;10.85;;;5.38;;
68608;SDS011;55581;46.718;7.690;2024-01-27T01:51:34;8.93;;;4.43;;
68608;SDS011;55581;46.718;7.690;2024-01-27T01:54:00;7.30;;;3.43;;
68608;SDS011;55581;46.718;7.690;2024-01-27T01:56:25;6.90;;;3.13;;
68608;SDS011;55581;46.718;7.690;2024-01-27T01:58:51;6.07;;;2.13;;
68608;SDS011;55581;46.718;7.690;2024-01-27T02:01:19;7.07;;;2.67;;
68608;SDS011;55581;46.718;7.690;2024-01-27T02:03:55;5.63;;;2.53;;
68608;SDS011;55581;46.718;7.690;2024-01-27T02:06:21;6.55;;;2.30;;
68608;SDS011;55581;46.718;7.690;2024-01-27T02:08:47;12.98;;;5.90;;
68608;SDS011;55581;46.718;7.690;2024-01-27T02:11:12;13.47;;;5.50;;
68608;SDS011;55581;46.718;7.690;2024-01-27T02:13:38;15.37;;;6.53;;
68608;SDS011;55581;46.718;7.690;2024-01-27T02:16:03;14.37;;;7.13;;
68608;SDS011;55581;46.718;7.690;2024-01-27T02:18:32;15.13;;;7.47;;
68608;SDS011;55581;46.718;7.690;2024-01-27T02:20:57;18.88;;;8.70;;
68608;SDS011;55581;46.718;7.690;2024-01-27T02:23:22;15.33;;;7.80;;
68608;SDS011;55581;46.718;7.690;2024-01-27T02:25:48;14.10;;;7.00;;
68608;SDS011;55581;46.718;7.690;2024-01-27T02:28:18;15.00;;;6.88;;
68608;SDS011;55581;46.718;7.690;2024-01-27T02:30:43;13.35;;;6.25;;
68608;SDS011;55581;46.718;7.690;2024-01-27T02:33:09;16.17;;;7.60;;
68608;SDS011;55581;46.718;7.690;2024-01-27T02:35:34;16.77;;;7.33;;
68608;SDS011;55581;46.718;7.690;2024-01-27T02:38:00;16.93;;;7.67;;
68608;SDS011;55581;46.718;7.690;2024-01-27T02:40:25;15.15;;;6.95;;
68608;SDS011;55581;46.718;7.690;2024-01-27T02:42:51;16.40;;;8.10;;
68608;SDS011;55581;46.718;7.690;2024-01-27T02:45:17;16.25;;;7.28;;
68608;SDS011;55581;46.718;7.690;2024-01-27T02:47:42;18.27;;;7.60;;
68608;SDS011;55581;46.718;7.690;2024-01-27T02:50:10;16.42;;;7.97;;
68608;SDS011;55581;46.718;7.690;2024-01-27T02:52:36;18.70;;;7.72;;
68608;SDS011;55581;46.718;7.690;2024-01-27T02:55:04;16.52;;;7.68;;
68608;SDS011;55581;46.718;7.690;2024-01-27T02:57:30;16.43;;;7.10;;
68608;SDS011;55581;46.718;7.690;2024-01-27T02:59:56;17.88;;;8.13;;
68608;SDS011;55581;46.718;7.690;2024-01-27T03:02:21;18.57;;;7.10;;
68608;SDS011;55581;46.718;7.690;2024-01-27T03:04:46;20.33;;;8.20;;
68608;SDS011;55581;46.718;7.690;2024-01-27T03:07:12;18.50;;;8.07;;
68608;SDS011;55581;46.718;7.690;2024-01-27T03:09:37;19.73;;;8.63;;
68608;SDS011;55581;46.718;7.690;2024-01-27T03:12:03;20.17;;;8.37;;
68608;SDS011;55581;46.718;7.690;2024-01-27T03:14:28;19.43;;;7.77;;
68608;SDS011;55581;46.718;7.690;2024-01-27T03:16:54;19.25;;;8.95;;
68608;SDS011;55581;46.718;7.690;2024-01-27T03:19:19;18.93;;;9.10;;
68608;SDS011;55581;46.718;7.690;2024-01-27T03:21:48;18.83;;;8.30;;
68608;SDS011;55581;46.718;7.690;2024-01-27T03:24:13;16.93;;;7.50;;
68608;SDS011;55581;46.718;7.690;2024-01-27T03:26:38;17.27;;;8.20;;
68608;SDS011;55581;46.718;7.690;2024-01-27T03:29:04;15.68;;;8.05;;
68608;SDS011;55581;46.718;7.690;2024-01-27T03:31:30;16.53;;;8.10;;
68608;SDS011;55581;46.718;7.690;2024-01-27T03:33:57;18.63;;;8.32;;
68608;SDS011;55581;46.718;7.690;2024-01-27T03:36:26;20.48;;;8.88;;
68608;SDS011;55581;46.718;7.690;2024-01-27T03:38:51;17.70;;;8.80;;
68608;SDS011;55581;46.718;7.690;2024-01-27T03:41:17;19.45;;;9.50;;
68608;SDS011;55581;46.718;7.690;2024-01-27T03:43:43;15.70;;;7.53;;
68608;SDS011;55581;46.718;7.690;2024-01-27T03:46:10;20.15;;;9.20;;
68608;SDS011;55581;46.718;7.690;2024-01-27T03:48:36;20.37;;;8.77;;
68608;SDS011;55581;46.718;7.690;2024-01-27T03:51:04;19.87;;;9.67;;
68608;SDS011;55581;46.718;7.690;2024-01-27T03:53:29;17.40;;;8.48;;
68608;SDS011;55581;46.718;7.690;2024-01-27T03:55:55;16.17;;;7.80;;
68608;SDS011;55581;46.718;7.690;2024-01-27T03:58:23;19.85;;;8.93;;
68608;SDS011;55581;46.718;7.690;2024-01-27T04:00:49;19.58;;;8.55;;
68608;SDS011;55581;46.718;7.690;2024-01-27T04:03:14;15.47;;;7.73;;
68608;SDS011;55581;46.718;7.690;2024-01-27T04:05:40;17.00;;;7.57;;
68608;SDS011;55581;46.718;7.690;2024-01-27T04:08:05;17.33;;;8.63;;
68608;SDS011;55581;46.718;7.690;2024-01-27T04:10:31;19.88;;;9.20;;
68608;SDS011;55581;46.718;7.690;2024-01-27T04:12:57;15.13;;;7.60;;
68608;SDS011;55581;46.718;7.690;2024-01-27T04:15:22;17.23;;;8.20;;
68608;SDS011;55581;46.718;7.690;2024-01-27T04:17:47;18.40;;;8.07;;
68608;SDS011;55581;46.718;7.690;2024-01-27T04:20:13;15.27;;;6.20;;
68608;SDS011;55581;46.718;7.690;2024-01-27T04:22:38;13.27;;;6.90;;
68608;SDS011;55581;46.718;7.690;2024-01-27T04:25:04;13.32;;;6.68;;
68608;SDS011;55581;46.718;7.690;2024-01-27T04:27:30;11.50;;;5.88;;
68608;SDS011;55581;46.718;7.690;2024-01-27T04:29:55;13.63;;;5.53;;
68608;SDS011;55581;46.718;7.690;2024-01-27T04:32:24;13.88;;;6.18;;
68608;SDS011;55581;46.718;7.690;2024-01-27T04:34:50;12.63;;;6.43;;
68608;SDS011;55581;46.718;7.690;2024-01-27T04:37:15;13.33;;;6.20;;
68608;SDS011;55581;46.718;7.690;2024-01-27T04:39:41;14.17;;;6.37;;
68608;SDS011;55581;46.718;7.690;2024-01-27T04:42:06;11.70;;;5.77;;
68608;SDS011;55581;46.718;7.690;2024-01-27T04:44:32;16.30;;;6.55;;
68608;SDS011;55581;46.718;7.690;2024-01-27T04:46:58;11.93;;;6.23;;
68608;SDS011;55581;46.718;7.690;2024-01-27T04:49:23;12.48;;;6.15;;
68608;SDS011;55581;46.718;7.690;2024-01-27T04:51:49;11.90;;;5.73;;
68608;SDS011;55581;46.718;7.690;2024-01-27T04:54:15;12.00;;;5.93;;
68608;SDS011;55581;46.718;7.690;2024-01-27T04:56:42;13.10;;;5.97;;
68608;SDS011;55581;46.718;7.690;2024-01-27T04:59:08;12.23;;;5.53;;
68608;SDS011;55581;46.718;7.690;2024-01-27T05:01:33;11.45;;;5.82;;
68608;SDS011;55581;46.718;7.690;2024-01-27T05:03:59;14.17;;;6.23;;
68608;SDS011;55581;46.718;7.690;2024-01-27T05:06:24;18.17;;;7.80;;
68608;SDS011;55581;46.718;7.690;2024-01-27T05:08:50;15.03;;;7.13;;
68608;SDS011;55581;46.718;7.690;2024-01-27T05:11:24;15.97;;;7.30;;
68608;SDS011;55581;46.718;7.690;2024-01-27T05:13:51;17.35;;;7.22;;
68608;SDS011;55581;46.718;7.690;2024-01-27T05:16:17;16.67;;;7.50;;
68608;SDS011;55581;46.718;7.690;2024-01-27T05:18:42;14.52;;;6.93;;
68608;SDS011;55581;46.718;7.690;2024-01-27T05:21:07;20.63;;;8.67;;
68608;SDS011;55581;46.718;7.690;2024-01-27T05:23:33;18.07;;;8.30;;
68608;SDS011;55581;46.718;7.690;2024-01-27T05:25:58;18.57;;;8.60;;
68608;SDS011;55581;46.718;7.690;2024-01-27T05:28:26;17.67;;;8.52;;
68608;SDS011;55581;46.718;7.690;2024-01-27T05:30:51;18.90;;;8.52;;
68608;SDS011;55581;46.718;7.690;2024-01-27T05:33:17;19.27;;;8.83;;
68608;SDS011;55581;46.718;7.690;2024-01-27T05:35:42;18.47;;;8.40;;
68608;SDS011;55581;46.718;7.690;2024-01-27T05:38:08;16.73;;;8.17;;
68608;SDS011;55581;46.718;7.690;2024-01-27T05:40:33;19.80;;;9.32;;
68608;SDS011;55581;46.718;7.690;2024-01-27T05:42:59;19.80;;;8.90;;
68608;SDS011;55581;46.718;7.690;2024-01-27T05:45:24;20.67;;;8.93;;
68608;SDS011;55581;46.718;7.690;2024-01-27T05:47:54;22.15;;;9.65;;
68608;SDS011;55581;46.718;7.690;2024-01-27T05:50:19;33.47;;;10.77;;
68608;SDS011;55581;46.718;7.690;2024-01-27T05:52:47;26.00;;;10.25;;
68608;SDS011;55581;46.718;7.690;2024-01-27T05:55:12;22.77;;;9.87;;
68608;SDS011;55581;46.718;7.690;2024-01-27T05:57:41;23.98;;;10.40;;
68608;SDS011;55581;46.718;7.690;2024-01-27T06:00:07;39.10;;;11.67;;
68608;SDS011;55581;46.718;7.690;2024-01-27T06:02:34;31.48;;;10.25;;
68608;SDS011;55581;46.718;7.690;2024-01-27T06:04:59;26.47;;;9.97;;
68608;SDS011;55581;46.718;7.690;2024-01-27T06:07:25;24.73;;;9.93;;
68608;SDS011;55581;46.718;7.690;2024-01-27T06:09:50;23.43;;;10.27;;
68608;SDS011;55581;46.718;7.690;2024-01-27T06:12:15;34.30;;;10.07;;
68608;SDS011;55581;46.718;7.690;2024-01-27T06:14:41;23.30;;;9.00;;
68608;SDS011;55581;46.718;7.690;2024-01-27T06:17:07;28.93;;;9.40;;
68608;SDS011;55581;46.718;7.690;2024-01-27T06:19:32;21.40;;;9.67;;
68608;SDS011;55581;46.718;7.690;2024-01-27T06:21:57;18.02;;;8.02;;
68608;SDS011;55581;46.718;7.690;2024-01-27T06:24:23;43.90;;;10.17;;
68608;SDS011;55581;46.718;7.690;2024-01-27T06:26:49;22.60;;;8.32;;
68608;SDS011;55581;46.718;7.690;2024-01-27T06:29:16;28.13;;;8.10;;
68608;SDS011;55581;46.718;7.690;2024-01-27T06:31:43;28.02;;;8.45;;
68608;SDS011;55581;46.718;7.690;2024-01-27T06:34:09;25.47;;;9.73;;
68608;SDS011;55581;46.718;7.690;2024-01-27T06:36:34;17.50;;;8.70;;
68608;SDS011;55581;46.718;7.690;2024-01-27T06:39:00;35.60;;;9.73;;
68608;SDS011;55581;46.718;7.690;2024-01-27T06:41:25;19.73;;;8.77;;
68608;SDS011;55581;46.718;7.690;2024-01-27T06:43:51;20.47;;;8.90;;
68608;SDS011;55581;46.718;7.690;2024-01-27T06:46:19;20.30;;;9.20;;
68608;SDS011;55581;46.718;7.690;2024-01-27T06:48:44;22.70;;;9.57;;
68608;SDS011;55581;46.718;7.690;2024-01-27T06:51:09;18.93;;;7.93;;
68608;SDS011;55581;46.718;7.690;2024-01-27T06:53:35;14.40;;;6.60;;
68608;SDS011;55581;46.718;7.690;2024-01-27T06:56:03;18.83;;;8.43;;
68608;SDS011;55581;46.718;7.690;2024-01-27T06:58:28;18.30;;;7.95;;
68608;SDS011;55581;46.718;7.690;2024-01-27T07:00:56;16.37;;;6.83;;
68608;SDS011;55581;46.718;7.690;2024-01-27T07:03:22;16.05;;;7.18;;
68608;SDS011;55581;46.718;7.690;2024-01-27T07:05:47;12.23;;;5.90;;
68608;SDS011;55581;46.718;7.690;2024-01-27T07:08:13;12.95;;;5.93;;
68608;SDS011;55581;46.718;7.690;2024-01-27T07:10:38;9.60;;;4.57;;
68608;SDS011;55581;46.718;7.690;2024-01-27T07:13:04;11.53;;;4.77;;
68608;SDS011;55581;46.718;7.690;2024-01-27T07:15:33;10.68;;;4.70;;
68608;SDS011;55581;46.718;7.690;2024-01-27T07:17:58;11.17;;;4.60;;
68608;SDS011;55581;46.718;7.690;2024-01-27T07:20:24;10.83;;;4.60;;
68608;SDS011;55581;46.718;7.690;2024-01-27T07:22:49;9.13;;;4.03;;
68608;SDS011;55581;46.718;7.690;2024-01-27T07:25:15;6.17;;;2.33;;
68608;SDS011;55581;46.718;7.690;2024-01-27T07:27:41;5.07;;;2.10;;
68608;SDS011;55581;46.718;7.690;2024-01-27T07:30:06;4.70;;;1.67;;
68608;SDS011;55581;46.718;7.690;2024-01-27T07:32:36;5.53;;;2.00;;
68608;SDS011;55581;46.718;7.690;2024-01-27T07:35:01;4.63;;;1.60;;
68608;SDS011;55581;46.718;7.690;2024-01-27T07:37:26;5.03;;;1.80;;
68608;SDS011;55581;46.718;7.690;2024-01-27T07:39:52;5.70;;;1.57;;
68608;SDS011;55581;46.718;7.690;2024-01-27T07:42:17;5.10;;;1.83;;
68608;SDS011;55581;46.718;7.690;2024-01-27T07:44:43;6.45;;;1.65;;
68608;SDS011;55581;46.718;7.690;2024-01-27T07:47:08;4.70;;;1.80;;
68608;SDS011;55581;46.718;7.690;2024-01-27T07:49:34;5.07;;;1.50;;
68608;SDS011;55581;46.718;7.690;2024-01-27T07:51:59;4.43;;;1.50;;
68608;SDS011;55581;46.718;7.690;2024-01-27T07:54:25;6.13;;;2.20;;
68608;SDS011;55581;46.718;7.690;2024-01-27T07:56:50;5.37;;;1.70;;
68608;SDS011;55581;46.718;7.690;2024-01-27T07:59:15;5.53;;;1.60;;
68608;SDS011;55581;46.718;7.690;2024-01-27T08:01:41;3.38;;;1.02;;
68608;SDS011;55581;46.718;7.690;2024-01-27T08:04:06;5.47;;;1.10;;
68608;SDS011;55581;46.718;7.690;2024-01-27T08:06:45;3.55;;;1.10;;
68608;SDS011;55581;46.718;7.690;2024-01-27T08:09:12;4.37;;;0.80;;
68608;SDS011;55581;46.718;7.690;2024-01-27T08:11:37;4.68;;;1.20;;
68608;SDS011;55581;46.718;7.690;2024-01-27T08:14:05;2.70;;;0.70;;
68608;SDS011;55581;46.718;7.690;2024-01-27T08:16:30;3.28;;;0.93;;
68608;SDS011;55581;46.718;7.690;2024-01-27T08:18:58;2.80;;;0.57;;
68608;SDS011;55581;46.718;7.690;2024-01-27T08:21:23;3.80;;;0.60;;
68608;SDS011;55581;46.718;7.690;2024-01-27T08:23:49;2.93;;;0.70;;
68608;SDS011;55581;46.718;7.690;2024-01-27T08:26:14;3.93;;;0.80;;
68608;SDS011;55581;46.718;7.690;2024-01-27T08:28:43;3.30;;;0.68;;
68608;SDS011;55581;46.718;7.690;2024-01-27T08:31:11;2.53;;;0.50;;
68608;SDS011;55581;46.718;7.690;2024-01-27T08:33:37;2.72;;;0.43;;
68608;SDS011;55581;46.718;7.690;2024-01-27T08:36:02;2.50;;;0.40;;
68608;SDS011;55581;46.718;7.690;2024-01-27T08:38:28;2.42;;;0.47;;
68608;SDS011;55581;46.718;7.690;2024-01-27T08:40:56;2.17;;;0.30;;
68608;SDS011;55581;46.718;7.690;2024-01-27T08:43:21;3.37;;;0.40;;
68608;SDS011;55581;46.718;7.690;2024-01-27T08:45:47;2.25;;;0.40;;
68608;SDS011;55581;46.718;7.690;2024-01-27T08:48:12;4.07;;;0.30;;
68608;SDS011;55581;46.718;7.690;2024-01-27T08:50:38;2.97;;;0.53;;
68608;SDS011;55581;46.718;7.690;2024-01-27T08:53:04;3.67;;;0.70;;
68608;SDS011;55581;46.718;7.690;2024-01-27T08:55:29;3.50;;;1.07;;
68608;SDS011;55581;46.718;7.690;2024-01-27T08:57:56;3.58;;;0.80;;
68608;SDS011;55581;46.718;7.690;2024-01-27T09:00:22;2.65;;;0.60;;
68608;SDS011;55581;46.718;7.690;2024-01-27T09:02:47;3.33;;;0.40;;
68608;SDS011;55581;46.718;7.690;2024-01-27T09:05:13;3.50;;;0.50;;
68608;SDS011;55581;46.718;7.690;2024-01-27T09:07:41;2.78;;;0.40;;
68608;SDS011;55581;46.718;7.690;2024-01-27T09:10:08;2.72;;;0.52;;
68608;SDS011;55581;46.718;7.690;2024-01-27T09:12:39;2.90;;;0.70;;
68608;SDS011;55581;46.718;7.690;2024-01-27T09:15:07;3.03;;;0.60;;
68608;SDS011;55581;46.718;7.690;2024-01-27T09:17:35;1.87;;;0.20;;
68608;SDS011;55581;46.718;7.690;2024-01-27T09:20:01;2.80;;;0.55;;
68608;SDS011;55581;46.718;7.690;2024-01-27T09:22:26;2.60;;;0.57;;
68608;SDS011;55581;46.718;7.690;2024-01-27T09:24:54;3.13;;;0.70;;
68608;SDS011;55581;46.718;7.690;2024-01-27T09:27:20;2.45;;;0.60;;
68608;SDS011;55581;46.718;7.690;2024-01-27T09:29:45;2.90;;;0.70;;
68608;SDS011;55581;46.718;7.690;2024-01-27T09:32:13;3.80;;;0.80;;
68608;SDS011;55581;46.718;7.690;2024-01-27T09:34:43;2.45;;;0.52;;
68608;SDS011;55581;46.718;7.690;2024-01-27T09:37:09;3.77;;;0.60;;
68608;SDS011;55581;46.718;7.690;2024-01-27T09:39:34;2.28;;;0.60;;
68608;SDS011;55581;46.718;7.690;2024-01-27T09:42:03;2.13;;;0.20;;
68608;SDS011;55581;46.718;7.690;2024-01-27T09:44:31;1.88;;;0.30;;
68608;SDS011;55581;46.718;7.690;2024-01-27T09:46:59;1.95;;;0.20;;
68608;SDS011;55581;46.718;7.690;2024-01-27T09:49:25;2.63;;;0.60;;
68608;SDS011;55581;46.718;7.690;2024-01-27T09:51:52;2.08;;;0.30;;
68608;SDS011;55581;46.718;7.690;2024-01-27T09:54:18;2.60;;;0.43;;
68608;SDS011;55581;46.718;7.690;2024-01-27T09:56:45;4.82;;;0.52;;
68608;SDS011;55581;46.718;7.690;2024-01-27T09:59:11;2.38;;;0.60;;
68608;SDS011;55581;46.718;7.690;2024-01-27T10:01:39;4.03;;;0.50;;
68608;SDS011;55581;46.718;7.690;2024-01-27T10:04:05;5.47;;;0.70;;
68608;SDS011;55581;46.718;7.690;2024-01-27T10:06:38;3.17;;;0.60;;
68608;SDS011;55581;46.718;7.690;2024-01-27T10:09:04;9.32;;;4.15;;
68608;SDS011;55581;46.718;7.690;2024-01-27T10:11:29;3.27;;;1.33;;
68608;SDS011;55581;46.718;7.690;2024-01-27T10:14:00;3.03;;;0.60;;
68608;SDS011;55581;46.718;7.690;2024-01-27T10:16:26;2.97;;;0.70;;
68608;SDS011;55581;46.718;7.690;2024-01-27T10:19:03;2.53;;;0.40;;
68608;SDS011;55581;46.718;7.690;2024-01-27T10:21:31;3.17;;;0.70;;
68608;SDS011;55581;46.718;7.690;2024-01-27T10:23:56;3.40;;;0.40;;
68608;SDS011;55581;46.718;7.690;2024-01-27T10:26:22;2.33;;;0.37;;
68608;SDS011;55581;46.718;7.690;2024-01-27T10:28:52;3.05;;;0.30;;
68608;SDS011;55581;46.718;7.690;2024-01-27T10:31:25;2.42;;;0.20;;
68608;SDS011;55581;46.718;7.690;2024-01-27T10:33:52;2.45;;;0.40;;
68608;SDS011;55581;46.718;7.690;2024-01-27T10:36:24;2.07;;;0.30;;
68608;SDS011;55581;46.718;7.690;2024-01-27T10:38:51;3.25;;;0.35;;
68608;SDS011;55581;46.718;7.690;2024-01-27T10:41:25;3.10;;;0.53;;
68608;SDS011;55581;46.718;7.690;2024-01-27T10:43:52;1.93;;;0.23;;
68608;SDS011;55581;46.718;7.690;2024-01-27T10:46:19;2.58;;;0.30;;
68608;SDS011;55581;46.718;7.690;2024-01-27T10:48:52;1.85;;;0.20;;
68608;SDS011;55581;46.718;7.690;2024-01-27T10:51:40;2.03;;;0.40;;
68608;SDS011;55581;46.718;7.690;2024-01-27T10:54:07;1.70;;;0.38;;
68608;SDS011;55581;46.718;7.690;2024-01-27T10:56:39;1.97;;;0.30;;
68608;SDS011;55581;46.718;7.690;2024-01-27T10:59:07;1.88;;;0.30;;
68608;SDS011;55581;46.718;7.690;2024-01-27T11:01:35;1.52;;;0.20;;
68608;SDS011;55581;46.718;7.690;2024-01-27T11:04:07;2.28;;;0.30;;
68608;SDS011;55581;46.718;7.690;2024-01-27T11:06:35;2.05;;;0.30;;
68608;SDS011;55581;46.718;7.690;2024-01-27T11:09:02;1.40;;;0.30;;
68608;SDS011;55581;46.718;7.690;2024-01-27T11:11:29;2.00;;;0.30;;
68608;SDS011;55581;46.718;7.690;2024-01-27T11:13:55;2.30;;;0.40;;
68608;SDS011;55581;46.718;7.690;2024-01-27T11:16:21;1.97;;;0.30;;
68608;SDS011;55581;46.718;7.690;2024-01-27T11:18:48;1.38;;;0.20;;
68608;SDS011;55581;46.718;7.690;2024-01-27T11:21:14;2.00;;;0.20;;
68608;SDS011;55581;46.718;7.690;2024-01-27T11:23:41;2.00;;;0.38;;
68608;SDS011;55581;46.718;7.690;2024-01-27T11:26:07;1.80;;;0.40;;
68608;SDS011;55581;46.718;7.690;2024-01-27T11:28:33;2.28;;;0.52;;
68608;SDS011;55581;46.718;7.690;2024-01-27T11:31:04;1.83;;;0.28;;
68608;SDS011;55581;46.718;7.690;2024-01-27T11:33:32;1.75;;;0.20;;
68608;SDS011;55581;46.718;7.690;2024-01-27T11:36:04;1.80;;;0.30;;
68608;SDS011;55581;46.718;7.690;2024-01-27T11:38:33;1.77;;;0.20;;
68608;SDS011;55581;46.718;7.690;2024-01-27T11:41:01;1.77;;;0.20;;
68608;SDS011;55581;46.718;7.690;2024-01-27T11:43:28;1.30;;;0.30;;
68608;SDS011;55581;46.718;7.690;2024-01-27T11:45:57;1.20;;;0.20;;
68608;SDS011;55581;46.718;7.690;2024-01-27T11:48:23;1.43;;;0.30;;
68608;SDS011;55581;46.718;7.690;2024-01-27T11:50:48;2.30;;;0.20;;
68608;SDS011;55581;46.718;7.690;2024-01-27T11:53:14;1.43;;;0.20;;
68608;SDS011;55581;46.718;7.690;2024-01-27T11:55:39;1.20;;;0.20;;
68608;SDS011;55581;46.718;7.690;2024-01-27T11:58:04;1.40;;;0.30;;
68608;SDS011;55581;46.718;7.690;2024-01-27T12:00:30;1.58;;;0.20;;
68608;SDS011;55581;46.718;7.690;2024-01-27T12:02:58;0.80;;;0.10;;
68608;SDS011;55581;46.718;7.690;2024-01-27T12:05:23;1.13;;;0.20;;
68608;SDS011;55581;46.718;7.690;2024-01-27T12:07:49;2.17;;;0.53;;
68608;SDS011;55581;46.718;7.690;2024-01-27T12:10:17;2.03;;;0.50;;
68608;SDS011;55581;46.718;7.690;2024-01-27T12:12:44;2.97;;;0.88;;
68608;SDS011;55581;46.718;7.690;2024-01-27T12:15:09;2.42;;;0.52;;
68608;SDS011;55581;46.718;7.690;2024-01-27T12:17:35;2.80;;;0.50;;
68608;SDS011;55581;46.718;7.690;2024-01-27T12:20:00;2.43;;;0.53;;
68608;SDS011;55581;46.718;7.690;2024-01-27T12:22:26;2.90;;;0.70;;
68608;SDS011;55581;46.718;7.690;2024-01-27T12:24:53;3.95;;;0.68;;
68608;SDS011;55581;46.718;7.690;2024-01-27T12:27:19;3.80;;;1.00;;
68608;SDS011;55581;46.718;7.690;2024-01-27T12:29:47;2.95;;;0.70;;
68608;SDS011;55581;46.718;7.690;2024-01-27T12:32:17;3.25;;;1.13;;
68608;SDS011;55581;46.718;7.690;2024-01-27T12:34:46;2.87;;;0.70;;
68608;SDS011;55581;46.718;7.690;2024-01-27T12:37:15;3.38;;;1.00;;
68608;SDS011;55581;46.718;7.690;2024-01-27T12:39:43;3.73;;;1.20;;
68608;SDS011;55581;46.718;7.690;2024-01-27T12:42:12;3.83;;;1.20;;
68608;SDS011;55581;46.718;7.690;2024-01-27T12:44:38;4.30;;;1.10;;
68608;SDS011;55581;46.718;7.690;2024-01-27T12:47:04;3.00;;;0.90;;
68608;SDS011;55581;46.718;7.690;2024-01-27T12:49:30;3.50;;;1.20;;
68608;SDS011;55581;46.718;7.690;2024-01-27T12:52:00;1.83;;;0.45;;
68608;SDS011;55581;46.718;7.690;2024-01-27T12:54:25;1.80;;;0.40;;
68608;SDS011;55581;46.718;7.690;2024-01-27T12:56:53;3.17;;;0.40;;
68608;SDS011;55581;46.718;7.690;2024-01-27T12:59:18;2.07;;;0.40;;
68608;SDS011;55581;46.718;7.690;2024-01-27T13:01:44;2.47;;;0.53;;
68608;SDS011;55581;46.718;7.690;2024-01-27T13:04:09;2.70;;;0.55;;
68608;SDS011;55581;46.718;7.690;2024-01-27T13:06:37;2.03;;;0.40;;
68608;SDS011;55581;46.718;7.690;2024-01-27T13:09:03;3.97;;;0.80;;
68608;SDS011;55581;46.718;7.690;2024-01-27T13:11:29;2.45;;;0.57;;
68608;SDS011;55581;46.718;7.690;2024-01-27T13:13:56;3.63;;;1.15;;
68608;SDS011;55581;46.718;7.690;2024-01-27T13:16:22;2.87;;;0.80;;
68608;SDS011;55581;46.718;7.690;2024-01-27T13:18:47;2.97;;;0.97;;
68608;SDS011;55581;46.718;7.690;2024-01-27T13:21:13;2.60;;;0.60;;
68608;SDS011;55581;46.718;7.690;2024-01-27T13:23:39;2.85;;;0.80;;
68608;SDS011;55581;46.718;7.690;2024-01-27T13:26:06;2.93;;;0.80;;
68608;SDS011;55581;46.718;7.690;2024-01-27T13:28:32;3.65;;;0.80;;
68608;SDS011;55581;46.718;7.690;2024-01-27T13:30:57;3.60;;;1.03;;
68608;SDS011;55581;46.718;7.690;2024-01-27T13:33:23;3.33;;;0.80;;
68608;SDS011;55581;46.718;7.690;2024-01-27T13:35:48;3.37;;;1.00;;
68608;SDS011;55581;46.718;7.690;2024-01-27T13:38:14;5.77;;;0.90;;
68608;SDS011;55581;46.718;7.690;2024-01-27T13:40:41;3.17;;;0.70;;
68608;SDS011;55581;46.718;7.690;2024-01-27T13:43:09;4.00;;;1.42;;
68608;SDS011;55581;46.718;7.690;2024-01-27T13:45:39;4.28;;;1.20;;
68608;SDS011;55581;46.718;7.690;2024-01-27T13:48:08;3.80;;;1.20;;
68608;SDS011;55581;46.718;7.690;2024-01-27T13:50:36;3.58;;;0.88;;
68608;SDS011;55581;46.718;7.690;2024-01-27T13:53:02;4.50;;;0.83;;
68608;SDS011;55581;46.718;7.690;2024-01-27T13:55:30;2.97;;;0.98;;
68608;SDS011;55581;46.718;7.690;2024-01-27T13:57:57;2.20;;;0.40;;
68608;SDS011;55581;46.718;7.690;2024-01-27T14:00:22;2.60;;;0.80;;
68608;SDS011;55581;46.718;7.690;2024-01-27T14:02:50;4.80;;;1.10;;
68608;SDS011;55581;46.718;7.690;2024-01-27T14:05:15;4.63;;;1.30;;
68608;SDS011;55581;46.718;7.690;2024-01-27T14:07:41;3.43;;;1.20;;
68608;SDS011;55581;46.718;7.690;2024-01-27T14:10:06;3.03;;;0.93;;
68608;SDS011;55581;46.718;7.690;2024-01-27T14:12:34;4.33;;;1.43;;
68608;SDS011;55581;46.718;7.690;2024-01-27T14:15:03;3.50;;;1.50;;
68608;SDS011;55581;46.718;7.690;2024-01-27T14:17:36;3.30;;;1.10;;
68608;SDS011;55581;46.718;7.690;2024-01-27T14:20:04;3.65;;;1.15;;
68608;SDS011;55581;46.718;7.690;2024-01-27T14:22:30;4.35;;;1.70;;
68608;SDS011;55581;46.718;7.690;2024-01-27T14:24:56;4.13;;;1.00;;
68608;SDS011;55581;46.718;7.690;2024-01-27T14:27:21;3.35;;;1.27;;
68608;SDS011;55581;46.718;7.690;2024-01-27T14:29:54;4.03;;;1.45;;
68608;SDS011;55581;46.718;7.690;2024-01-27T14:32:20;3.17;;;1.30;;
68608;SDS011;55581;46.718;7.690;2024-01-27T14:34:48;4.03;;;1.30;;
68608;SDS011;55581;46.718;7.690;2024-01-27T14:37:14;4.22;;;1.40;;